Jalappa, Pennsylvania
Current Conditions -  °F | °C
As of 10:54 PM on Monday 20 Oct 2014 (Local Time) from KRDG Reporting Station
Light Rain Light Rain  
Wind Chill: 57°   Ceiling: 8000
Heat Index: 57°   Visibility: 10mi
Dew Point: 45°   Wind: 6mph
Humidity: 64%   Direction: 190°S
Pressure: 29.95"   Gusts: NA
Location:  40.5494°N, 75.999°W
Report Text: KRDG 210254Z AUTO 19005KT 10SM -RA SCT046 BKN080 OVC090 14/07 A2995 RMK AO2 RAB51 SLP146 P0000 60000 T01390072 53001
Loading
Personal Weather Stations






























Interactive Weather Map
Tropical Storm Tracking
New forecast layout! Learn more

10-Day Weather Forecast

Advertisements
Track Severe Weather on mobile